Time;durP1;ratioP1;P1;durP2;ratioP2;P2;SDS_P1;SDS_P2;PMS_P1;PMS_P2;Temp;Humidity;BMP_temperature;BMP_pressure;BME280_temperature;BME280_humidity;BME280_pressure;Samples;Min_cycle;Max_cycle;Signal;HPM_P1;HPM_P2
2022/03/29 00:01:02;;;;;;;;;17.00;13.00;;;;;;;;5078421;28;45392;-72
2022/03/29 00:03:28;;;;;;;;;17.00;14.75;;;;;;;;5077032;28;45574;-72
2022/03/29 00:05:53;;;;;;;;;20.00;15.75;;;;;;;;5078415;28;45449;-72
2022/03/29 00:08:18;;;;;;;;;17.00;16.00;;;;;;;;5078644;28;45250;-73
2022/03/29 00:10:44;;;;;;;;;19.00;14.00;;;;;;;;5078326;28;45341;-72
2022/03/29 00:13:10;;;;;;;;;20.25;16.50;;;;;;;;5077443;28;45526;-72
2022/03/29 00:15:35;;;;;;;;;18.00;15.00;;;;;;;;5079953;28;45637;-72
2022/03/29 00:18:00;;;;;;;;;17.75;14.25;;;;;;;;5078643;27;45561;-72
2022/03/29 00:20:26;;;;;;;;;19.50;16.50;;;;;;;;5079357;27;46426;-73
2022/03/29 00:22:52;;;;;;;;;17.00;14.50;;;;;;;;5078485;28;45879;-72
2022/03/29 00:25:17;;;;;;;;;24.50;16.00;;;;;;;;5080159;27;45412;-72
2022/03/29 00:27:43;;;;;;;;;18.50;14.75;;;;;;;;5080117;28;45567;-72
2022/03/29 00:30:11;;;;;;;;;18.75;13.25;;;;;;;;5078167;28;47785;-72
2022/03/29 00:32:37;;;;;;;;;18.00;15.00;;;;;;;;5079759;27;45231;-72
2022/03/29 00:35:03;;;;;;;;;18.50;14.75;;;;;;;;5079658;28;45726;-72
2022/03/29 00:37:28;;;;;;;;;17.25;15.75;;;;;;;;5078369;28;45508;-72
2022/03/29 00:39:54;;;;;;;;;27.00;16.75;;;;;;;;5078132;28;45519;-72
2022/03/29 00:42:19;;;;;;;;;19.25;15.25;;;;;;;;5078532;28;45392;-72
2022/03/29 00:44:45;;;;;;;;;19.75;15.25;;;;;;;;5079493;28;45460;-72
2022/03/29 00:47:10;;;;;;;;;15.50;13.75;;;;;;;;5079971;28;45482;-72
2022/03/29 00:49:36;;;;;;;;;21.50;18.00;;;;;;;;5079278;27;45414;-72
2022/03/29 00:52:03;;;;;;;;;18.00;15.00;;;;;;;;5079369;28;45361;-72
2022/03/29 00:54:29;;;;;;;;;15.00;14.25;;;;;;;;5079468;27;45408;-72
2022/03/29 00:56:58;;;;;;;;;21.00;15.25;;;;;;;;5079423;27;45410;-72
2022/03/29 00:59:24;;;;;;;;;16.00;13.25;;;;;;;;5078942;28;45442;-72
2022/03/29 01:01:49;;;;;;;;;16.25;13.50;;;;;;;;5077721;28;45255;-72
2022/03/29 01:04:15;;;;;;;;;20.50;16.00;;;;;;;;5079078;28;45478;-72
2022/03/29 01:06:42;;;;;;;;;17.75;16.00;;;;;;;;5078117;28;45299;-72
2022/03/29 01:09:07;;;;;;;;;19.00;15.25;;;;;;;;5079055;28;45673;-72
2022/03/29 01:11:33;;;;;;;;;17.25;14.25;;;;;;;;5078966;28;45461;-72
2022/03/29 01:13:59;;;;;;;;;19.75;16.00;;;;;;;;5078868;27;45357;-72
2022/03/29 01:19:11;;;;;;;;;20.25;16.75;;;;;;;;5078822;28;45281;-72
2022/03/29 01:21:38;;;;;;;;;23.75;18.25;;;;;;;;5078675;28;45469;-72
2022/03/29 01:24:04;;;;;;;;;20.75;17.00;;;;;;;;5078739;28;45492;-72
2022/03/29 01:26:30;;;;;;;;;18.00;15.25;;;;;;;;5079019;28;45475;-72
2022/03/29 01:28:55;;;;;;;;;16.25;15.25;;;;;;;;5078429;28;45471;-72
2022/03/29 01:31:21;;;;;;;;;18.25;15.00;;;;;;;;5077467;27;45559;-72
2022/03/29 01:33:47;;;;;;;;;16.25;12.75;;;;;;;;5077455;28;45385;-72
2022/03/29 01:36:12;;;;;;;;;24.50;20.25;;;;;;;;5078361;28;45425;-72
2022/03/29 01:38:38;;;;;;;;;46.00;36.25;;;;;;;;5078709;28;45222;-72
2022/03/29 01:41:05;;;;;;;;;50.75;37.50;;;;;;;;5078739;28;45445;-72
2022/03/29 01:43:31;;;;;;;;;74.75;58.00;;;;;;;;5077198;27;45328;-72
2022/03/29 01:45:56;;;;;;;;;53.00;41.50;;;;;;;;5077454;28;45656;-72
2022/03/29 01:48:23;;;;;;;;;40.75;33.75;;;;;;;;5077257;27;46213;-72
2022/03/29 01:50:49;;;;;;;;;25.25;21.00;;;;;;;;5078890;28;45379;-72
2022/03/29 01:53:21;;;;;;;;;27.25;22.75;;;;;;;;5078520;28;45454;-72
2022/03/29 01:55:47;;;;;;;;;18.50;17.00;;;;;;;;5077335;28;45199;-72
2022/03/29 01:58:12;;;;;;;;;18.75;16.25;;;;;;;;5076776;28;46390;-72
2022/03/29 02:00:41;;;;;;;;;35.50;30.25;;;;;;;;5076822;28;45421;-72
2022/03/29 02:03:07;;;;;;;;;25.75;19.00;;;;;;;;5078310;28;45503;-72
2022/03/29 02:05:33;;;;;;;;;27.75;23.50;;;;;;;;5078295;28;45485;-72
2022/03/29 02:07:59;;;;;;;;;22.75;21.00;;;;;;;;5077954;27;45888;-72
2022/03/29 02:10:25;;;;;;;;;23.25;20.25;;;;;;;;5078179;28;45404;-72
2022/03/29 02:12:51;;;;;;;;;20.75;17.75;;;;;;;;5078416;28;45511;-72
2022/03/29 02:15:17;;;;;;;;;20.75;17.00;;;;;;;;5078203;28;45985;-72
2022/03/29 02:17:43;;;;;;;;;31.50;24.75;;;;;;;;5077895;28;46542;-72
2022/03/29 02:20:08;;;;;;;;;44.50;35.00;;;;;;;;5077795;28;45468;-72
2022/03/29 02:22:34;;;;;;;;;62.75;49.00;;;;;;;;5077844;28;45445;-72
2022/03/29 02:24:59;;;;;;;;;38.50;31.50;;;;;;;;5076712;28;45413;-72
2022/03/29 02:27:25;;;;;;;;;37.00;32.00;;;;;;;;5078062;28;46380;-72
2022/03/29 02:29:50;;;;;;;;;31.00;26.50;;;;;;;;5077797;28;45294;-72
2022/03/29 02:32:15;;;;;;;;;40.00;33.75;;;;;;;;5078030;28;45372;-72
2022/03/29 02:34:41;;;;;;;;;30.50;27.75;;;;;;;;5078167;28;45457;-72
2022/03/29 02:37:06;;;;;;;;;32.00;23.25;;;;;;;;5077476;28;46595;-72
2022/03/29 02:39:32;;;;;;;;;30.25;24.25;;;;;;;;5077605;28;45305;-72
2022/03/29 02:41:57;;;;;;;;;44.75;33.25;;;;;;;;5076510;28;45346;-72
2022/03/29 02:44:22;;;;;;;;;49.50;36.50;;;;;;;;5076771;28;45496;-72
2022/03/29 02:46:48;;;;;;;;;45.00;35.50;;;;;;;;5076291;28;46115;-72
2022/03/29 02:49:13;;;;;;;;;78.00;60.00;;;;;;;;5077524;28;45400;-72
2022/03/29 02:51:39;;;;;;;;;40.00;31.25;;;;;;;;5077772;28;45326;-72
2022/03/29 02:54:05;;;;;;;;;41.50;33.00;;;;;;;;5077780;28;45548;-72
2022/03/29 02:56:30;;;;;;;;;43.00;33.75;;;;;;;;5075974;28;45580;-72
2022/03/29 02:58:56;;;;;;;;;34.75;31.25;;;;;;;;5077405;28;45213;-72
2022/03/29 03:01:21;;;;;;;;;27.00;20.75;;;;;;;;5076036;28;45496;-72
2022/03/29 03:03:47;;;;;;;;;16.50;14.50;;;;;;;;5077403;28;45223;-72
2022/03/29 03:06:12;;;;;;;;;18.75;15.00;;;;;;;;5077416;28;45524;-72
2022/03/29 03:08:37;;;;;;;;;20.25;15.00;;;;;;;;5077238;28;45432;-72
2022/03/29 03:11:03;;;;;;;;;23.75;18.00;;;;;;;;5077544;28;45508;-72
2022/03/29 03:13:29;;;;;;;;;18.00;14.75;;;;;;;;5077558;27;45351;-72
2022/03/29 03:15:54;;;;;;;;;19.00;17.00;;;;;;;;5077379;28;46584;-72
2022/03/29 03:18:19;;;;;;;;;16.25;15.50;;;;;;;;5077222;28;45459;-73
2022/03/29 03:20:45;;;;;;;;;19.75;18.00;;;;;;;;5077324;28;45335;-72
2022/03/29 03:23:10;;;;;;;;;21.00;19.50;;;;;;;;5076073;28;45376;-72
2022/03/29 03:25:35;;;;;;;;;18.50;15.75;;;;;;;;5075383;27;45574;-72
2022/03/29 03:28:01;;;;;;;;;18.25;16.25;;;;;;;;5076680;28;45515;-72
2022/03/29 03:30:26;;;;;;;;;16.00;14.75;;;;;;;;5077272;28;45509;-72
2022/03/29 03:32:54;;;;;;;;;15.00;14.50;;;;;;;;5077329;28;45248;-72
2022/03/29 03:35:19;;;;;;;;;20.75;17.50;;;;;;;;5076943;28;46201;-72
2022/03/29 03:37:44;;;;;;;;;17.00;15.25;;;;;;;;5077011;28;45414;-72
2022/03/29 03:40:10;;;;;;;;;20.25;17.25;;;;;;;;5077085;28;45419;-72
2022/03/29 03:42:37;;;;;;;;;20.00;18.00;;;;;;;;5077180;28;45450;-72
2022/03/29 03:45:03;;;;;;;;;17.00;14.00;;;;;;;;5076798;28;46524;-72
2022/03/29 03:47:29;;;;;;;;;14.25;13.75;;;;;;;;5077035;28;45456;-72
2022/03/29 03:49:54;;;;;;;;;18.50;15.50;;;;;;;;5076851;28;45455;-72
2022/03/29 03:52:20;;;;;;;;;19.75;16.00;;;;;;;;5077008;28;46058;-72
2022/03/29 03:54:46;;;;;;;;;17.50;16.25;;;;;;;;5076393;27;46815;-72
2022/03/29 03:57:11;;;;;;;;;18.00;16.50;;;;;;;;5075360;27;45523;-72
2022/03/29 03:59:36;;;;;;;;;16.75;15.00;;;;;;;;5079006;28;45380;-72
2022/03/29 04:02:02;;;;;;;;;18.50;14.75;;;;;;;;5080386;28;45275;-72
2022/03/29 04:04:28;;;;;;;;;20.25;17.00;;;;;;;;5080183;28;46245;-72
2022/03/29 04:06:53;;;;;;;;;15.00;15.00;;;;;;;;5079736;28;45560;-72
2022/03/29 04:09:19;;;;;;;;;20.50;15.00;;;;;;;;5079974;27;45215;-72
2022/03/29 04:11:44;;;;;;;;;15.75;13.25;;;;;;;;5080199;28;45500;-72
2022/03/29 04:14:10;;;;;;;;;23.25;19.25;;;;;;;;5079825;28;45866;-72
2022/03/29 04:16:35;;;;;;;;;19.00;16.00;;;;;;;;5079781;28;45352;-72
2022/03/29 04:19:01;;;;;;;;;16.75;16.50;;;;;;;;5080210;28;45548;-72
2022/03/29 04:21:27;;;;;;;;;25.50;24.25;;;;;;;;5080388;28;45374;-72
2022/03/29 04:23:52;;;;;;;;;20.25;17.75;;;;;;;;5079591;28;45987;-72
2022/03/29 04:26:17;;;;;;;;;18.00;15.25;;;;;;;;5079603;28;45360;-72
2022/03/29 04:28:43;;;;;;;;;18.00;16.50;;;;;;;;5079673;28;45459;-72
2022/03/29 04:31:09;;;;;;;;;15.50;14.75;;;;;;;;5080081;28;45397;-72
2022/03/29 04:33:34;;;;;;;;;18.75;16.00;;;;;;;;5078291;28;45452;-72
2022/03/29 04:36:00;;;;;;;;;16.50;15.75;;;;;;;;5080004;28;45333;-72
2022/03/29 04:38:25;;;;;;;;;22.75;17.25;;;;;;;;5079835;28;45279;-72
2022/03/29 04:40:50;;;;;;;;;19.00;16.75;;;;;;;;5079818;28;45295;-72
2022/03/29 04:43:16;;;;;;;;;17.75;16.00;;;;;;;;5078024;28;47879;-72
2022/03/29 04:45:41;;;;;;;;;22.00;21.50;;;;;;;;5077738;27;45314;-72
2022/03/29 04:48:07;;;;;;;;;31.00;28.00;;;;;;;;5079371;27;45351;-72
2022/03/29 04:50:33;;;;;;;;;27.50;25.75;;;;;;;;5080038;28;45362;-72
2022/03/29 04:52:58;;;;;;;;;37.25;30.75;;;;;;;;5079204;28;45484;-72
2022/03/29 04:55:24;;;;;;;;;27.50;24.00;;;;;;;;5077629;28;45391;-72
2022/03/29 04:57:49;;;;;;;;;25.75;20.75;;;;;;;;5079379;28;45399;-72
2022/03/29 05:00:16;;;;;;;;;27.75;24.75;;;;;;;;5079466;28;45300;-72
2022/03/29 05:02:43;;;;;;;;;31.50;29.25;;;;;;;;5077746;28;45463;-72
2022/03/29 05:05:10;;;;;;;;;37.50;31.75;;;;;;;;5079063;28;45457;-72
2022/03/29 05:07:35;;;;;;;;;45.00;33.75;;;;;;;;5077908;28;45428;-72
2022/03/29 05:10:02;;;;;;;;;59.50;46.25;;;;;;;;5077222;28;45405;-72
2022/03/29 05:12:27;;;;;;;;;53.25;39.50;;;;;;;;5079039;28;46364;-72
2022/03/29 05:14:52;;;;;;;;;39.25;32.75;;;;;;;;5077641;28;45348;-72
2022/03/29 05:17:18;;;;;;;;;32.25;27.25;;;;;;;;5079200;27;45346;-72
2022/03/29 05:19:43;;;;;;;;;25.50;22.75;;;;;;;;5079154;28;45349;-71
2022/03/29 05:22:08;;;;;;;;;23.50;22.50;;;;;;;;5078463;27;46239;-72
2022/03/29 05:24:34;;;;;;;;;49.00;38.25;;;;;;;;5078875;28;45422;-72
2022/03/29 05:26:59;;;;;;;;;26.75;25.25;;;;;;;;5078863;28;45263;-72
2022/03/29 05:29:29;;;;;;;;;30.50;28.75;;;;;;;;5078537;27;45528;-72
2022/03/29 05:31:56;;;;;;;;;54.75;45.00;;;;;;;;5078684;28;46193;-72
2022/03/29 05:34:21;;;;;;;;;43.00;34.25;;;;;;;;5078635;28;45484;-72
2022/03/29 05:36:46;;;;;;;;;21.50;19.75;;;;;;;;5077326;28;45507;-72
2022/03/29 05:39:13;;;;;;;;;20.75;17.00;;;;;;;;5078612;27;45470;-72
2022/03/29 05:41:39;;;;;;;;;21.75;17.75;;;;;;;;5078538;28;45325;-72
2022/03/29 05:44:04;;;;;;;;;21.75;18.50;;;;;;;;5077330;28;45463;-72
2022/03/29 05:49:13;;;;;;;;;20.50;15.75;;;;;;;;5078756;28;45301;-72
2022/03/29 05:51:39;;;;;;;;;19.75;18.75;;;;;;;;5078025;27;45783;-72
2022/03/29 05:54:06;;;;;;;;;15.50;13.00;;;;;;;;5078967;28;45211;-72
2022/03/29 05:56:31;;;;;;;;;15.50;13.25;;;;;;;;5078639;28;45369;-72
2022/03/29 05:58:57;;;;;;;;;16.50;14.25;;;;;;;;5077799;27;45555;-71
2022/03/29 06:01:22;;;;;;;;;16.00;14.50;;;;;;;;5076747;28;45627;-72
2022/03/29 06:03:49;;;;;;;;;6.00;3.00;;;;;;;;5077694;27;45388;-72
2022/03/29 06:06:14;;;;;;;;;20.25;16.00;;;;;;;;5078220;27;45319;-72
2022/03/29 06:08:40;;;;;;;;;17.50;17.25;;;;;;;;5078212;28;45342;-72
2022/03/29 06:11:07;;;;;;;;;17.00;15.25;;;;;;;;5078331;28;45834;-72
2022/03/29 06:13:32;;;;;;;;;18.00;16.50;;;;;;;;5078232;27;45531;-72
2022/03/29 06:15:58;;;;;;;;;15.25;13.00;;;;;;;;5078154;28;45247;-72
2022/03/29 06:18:23;;;;;;;;;23.00;19.50;;;;;;;;5077109;28;45565;-72
2022/03/29 06:20:49;;;;;;;;;37.50;33.50;;;;;;;;5077390;27;46091;-72
2022/03/29 06:23:14;;;;;;;;;25.00;15.75;;;;;;;;5076524;28;45374;-72
2022/03/29 06:25:40;;;;;;;;;17.25;12.75;;;;;;;;5077842;28;45398;-72
2022/03/29 06:28:06;;;;;;;;;19.00;17.00;;;;;;;;5076740;28;45467;-72
2022/03/29 06:30:31;;;;;;;;;20.75;17.00;;;;;;;;5077536;28;45814;-72
2022/03/29 06:32:57;;;;;;;;;20.00;17.50;;;;;;;;5077700;28;45482;-72
2022/03/29 06:35:26;;;;;;;;;24.25;22.00;;;;;;;;5076494;28;45378;-72
2022/03/29 06:37:52;;;;;;;;;20.25;18.50;;;;;;;;5077679;28;45486;-72
2022/03/29 06:40:18;;;;;;;;;15.00;15.00;;;;;;;;5076008;28;45551;-72
2022/03/29 06:42:44;;;;;;;;;17.75;16.00;;;;;;;;5077463;28;45408;-72
2022/03/29 06:45:10;;;;;;;;;20.00;18.25;;;;;;;;5077833;28;45550;-72
2022/03/29 06:47:36;;;;;;;;;22.50;19.50;;;;;;;;5078211;28;45434;-72
2022/03/29 06:50:03;;;;;;;;;24.25;22.00;;;;;;;;5077191;28;45960;-72
2022/03/29 06:52:33;;;;;;;;;32.25;23.25;;;;;;;;5076337;28;45465;-71
2022/03/29 06:54:58;;;;;;;;;24.50;22.00;;;;;;;;5076528;28;45595;-72
2022/03/29 06:57:24;;;;;;;;;27.25;24.50;;;;;;;;5075165;28;45655;-72
2022/03/29 06:59:50;;;;;;;;;24.00;18.50;;;;;;;;5076496;28;45611;-72
2022/03/29 07:02:15;;;;;;;;;20.25;19.00;;;;;;;;5076300;28;45497;-73
2022/03/29 07:04:40;;;;;;;;;20.25;19.00;;;;;;;;5076956;27;45629;-74
2022/03/29 07:07:06;;;;;;;;;26.50;21.25;;;;;;;;5075153;28;45602;-71
2022/03/29 07:12:15;;;;;;;;;20.00;16.50;;;;;;;;5073276;27;45533;-72
2022/03/29 07:14:40;;;;;;;;;26.00;23.25;;;;;;;;5077766;27;45445;-69
2022/03/29 07:17:10;;;;;;;;;28.25;26.25;;;;;;;;5074979;27;45482;-72
2022/03/29 07:19:41;;;;;;;;;33.75;27.00;;;;;;;;5074145;27;45499;-71
2022/03/29 07:22:06;;;;;;;;;29.75;24.75;;;;;;;;5075065;28;45359;-71
2022/03/29 07:24:32;;;;;;;;;22.00;20.00;;;;;;;;5075128;28;45419;-71
2022/03/29 07:26:57;;;;;;;;;23.50;21.75;;;;;;;;5074470;28;45321;-71
2022/03/29 07:29:22;;;;;;;;;23.00;18.50;;;;;;;;5075274;28;45480;-72
2022/03/29 07:31:48;;;;;;;;;16.00;13.25;;;;;;;;5072496;28;45437;-71
2022/03/29 07:34:14;;;;;;;;;23.25;19.00;;;;;;;;5077793;28;45633;-72
2022/03/29 07:36:39;;;;;;;;;18.00;15.50;;;;;;;;5079251;28;45464;-71
2022/03/29 07:39:05;;;;;;;;;21.50;15.50;;;;;;;;5078774;28;46180;-71
2022/03/29 07:41:30;;;;;;;;;15.75;14.25;;;;;;;;5078940;28;45446;-71
2022/03/29 07:43:56;;;;;;;;;15.25;14.25;;;;;;;;5078819;27;45410;-71
2022/03/29 07:46:21;;;;;;;;;19.50;15.25;;;;;;;;5078834;28;45460;-71
2022/03/29 07:48:46;;;;;;;;;22.50;18.50;;;;;;;;5077242;27;45547;-71
2022/03/29 07:51:12;;;;;;;;;20.25;17.75;;;;;;;;5077438;27;45378;-70
2022/03/29 07:53:38;;;;;;;;;16.75;14.50;;;;;;;;5078021;27;45499;-72
2022/03/29 07:56:04;;;;;;;;;16.75;15.25;;;;;;;;5079606;27;45322;-71
2022/03/29 07:58:29;;;;;;;;;17.00;14.33;;;;;;;;5078908;28;46384;-71
2022/03/29 08:00:55;;;;;;;;;18.25;15.50;;;;;;;;5077276;27;45527;-71
2022/03/29 08:03:21;;;;;;;;;17.50;15.75;;;;;;;;5077475;27;45496;-71
2022/03/29 08:05:48;;;;;;;;;20.25;17.00;;;;;;;;5079142;28;45372;-71
2022/03/29 08:08:15;;;;;;;;;16.25;15.50;;;;;;;;5079305;28;46290;-71
2022/03/29 08:10:41;;;;;;;;;21.00;18.25;;;;;;;;5078844;28;45453;-71
2022/03/29 08:13:07;;;;;;;;;14.75;14.00;;;;;;;;5078422;28;45510;-71
2022/03/29 08:15:33;;;;;;;;;15.75;15.00;;;;;;;;5077309;28;45599;-71
2022/03/29 08:17:59;;;;;;;;;15.25;11.25;;;;;;;;5077920;28;45338;-71
2022/03/29 08:20:24;;;;;;;;;19.25;15.50;;;;;;;;5078308;27;45365;-71
2022/03/29 08:22:50;;;;;;;;;21.50;19.50;;;;;;;;5076619;28;45528;-71
2022/03/29 08:25:16;;;;;;;;;19.50;15.25;;;;;;;;5078751;28;45569;-70
2022/03/29 08:27:42;;;;;;;;;17.75;15.25;;;;;;;;5078116;27;46315;-71
2022/03/29 08:30:08;;;;;;;;;17.25;15.50;;;;;;;;5076086;27;46016;-71
2022/03/29 08:32:35;;;;;;;;;16.50;14.50;;;;;;;;5077731;28;45398;-71
2022/03/29 08:35:00;;;;;;;;;14.25;13.00;;;;;;;;5078154;27;45516;-71
2022/03/29 08:37:26;;;;;;;;;16.75;13.25;;;;;;;;5077802;28;46374;-70
2022/03/29 08:39:51;;;;;;;;;17.75;15.50;;;;;;;;5077780;28;45575;-69
2022/03/29 08:42:20;;;;;;;;;12.00;11.25;;;;;;;;5077875;27;45487;-71
2022/03/29 08:44:46;;;;;;;;;14.50;12.50;;;;;;;;5074060;28;45443;-71
2022/03/29 08:47:15;;;;;;;;;16.00;12.33;;;;;;;;5077670;28;45487;-70
2022/03/29 08:49:41;;;;;;;;;13.00;11.33;;;;;;;;5077446;28;45679;-71
2022/03/29 08:52:07;;;;;;;;;14.33;12.33;;;;;;;;5076272;28;45503;-71
2022/03/29 08:54:32;;;;;;;;;16.50;14.25;;;;;;;;5077889;27;45393;-71
2022/03/29 08:56:58;;;;;;;;;13.25;12.00;;;;;;;;5077363;27;45472;-71
2022/03/29 08:59:26;;;;;;;;;14.50;11.25;;;;;;;;5076628;27;45817;-72
2022/03/29 09:01:51;;;;;;;;;15.67;13.67;;;;;;;;5078016;28;45437;-72
2022/03/29 09:04:21;;;;;;;;;18.67;14.00;;;;;;;;5078397;27;45431;-74
2022/03/29 09:06:50;;;;;;;;;19.25;14.75;;;;;;;;5078021;27;45423;-74
2022/03/29 09:09:24;;;;;;;;;14.50;12.25;;;;;;;;5078132;27;45334;-72
2022/03/29 09:11:51;;;;;;;;;15.75;14.50;;;;;;;;5075734;28;45521;-71
2022/03/29 09:14:17;;;;;;;;;17.50;15.75;;;;;;;;5077971;27;45567;-71
2022/03/29 09:16:43;;;;;;;;;17.75;16.50;;;;;;;;5077429;27;45570;-71
2022/03/29 09:19:09;;;;;;;;;8.00;7.00;;;;;;;;5075777;28;45582;-71
2022/03/29 09:21:39;;;;;;;;;14.75;12.25;;;;;;;;5075384;28;45441;-72
2022/03/29 09:24:09;;;;;;;;;19.25;15.25;;;;;;;;5074627;28;45357;-71
2022/03/29 09:26:36;;;;;;;;;17.75;16.50;;;;;;;;5076840;27;45397;-71
2022/03/29 09:29:02;;;;;;;;;15.50;14.00;;;;;;;;5077130;28;45364;-71
2022/03/29 09:31:28;;;;;;;;;24.75;21.50;;;;;;;;5077746;28;45397;-71
2022/03/29 09:34:09;;;;;;;;;16.25;14.75;;;;;;;;5078045;28;45435;-72
2022/03/29 09:36:43;;;;;;;;;15.75;14.50;;;;;;;;5077486;28;46265;-70
2022/03/29 09:39:09;;;;;;;;;19.75;15.00;;;;;;;;5075988;28;45507;-71
2022/03/29 09:41:36;;;;;;;;;16.00;13.75;;;;;;;;5077847;28;45771;-71
2022/03/29 09:44:09;;;;;;;;;20.50;19.25;;;;;;;;5077552;28;45433;-72
2022/03/29 09:46:54;;;;;;;;;21.25;16.50;;;;;;;;5076148;28;48020;-71
2022/03/29 09:49:22;;;;;;;;;16.50;14.50;;;;;;;;5077536;28;45342;-72
2022/03/29 09:52:06;;;;;;;;;22.25;15.75;;;;;;;;5077235;27;45472;-71
2022/03/29 09:54:32;;;;;;;;;16.25;14.25;;;;;;;;5074473;28;45485;-71
2022/03/29 09:56:57;;;;;;;;;18.00;16.00;;;;;;;;5076482;27;45819;-71
2022/03/29 09:59:23;;;;;;;;;17.33;14.67;;;;;;;;5077681;28;45461;-71
2022/03/29 10:01:57;;;;;;;;;19.25;15.50;;;;;;;;5078094;28;45441;-71
2022/03/29 10:04:24;;;;;;;;;16.33;15.33;;;;;;;;5076347;28;45589;-71
2022/03/29 10:06:53;;;;;;;;;21.50;18.50;;;;;;;;5078001;28;45611;-71
2022/03/29 10:09:28;;;;;;;;;20.25;16.50;;;;;;;;5077970;27;45481;-71
2022/03/29 10:12:04;;;;;;;;;16.33;15.33;;;;;;;;5077629;28;45503;-71
2022/03/29 10:14:31;;;;;;;;;14.67;13.33;;;;;;;;5076697;27;45503;-71
2022/03/29 10:16:57;;;;;;;;;16.75;15.75;;;;;;;;5077772;28;46274;-71
2022/03/29 10:19:22;;;;;;;;;17.75;16.00;;;;;;;;5077687;28;45265;-71
2022/03/29 10:21:48;;;;;;;;;18.00;17.75;;;;;;;;5078135;28;45409;-71
2022/03/29 10:24:14;;;;;;;;;17.67;14.67;;;;;;;;5076873;28;45384;-71
2022/03/29 10:26:40;;;;;;;;;15.50;15.25;;;;;;;;5076934;28;45506;-72
2022/03/29 10:29:06;;;;;;;;;19.67;15.00;;;;;;;;5077209;28;45224;-71
2022/03/29 10:31:48;;;;;;;;;17.00;15.67;;;;;;;;5077902;28;45242;-71
2022/03/29 10:34:17;;;;;;;;;14.00;13.67;;;;;;;;5076493;28;45338;-71
2022/03/29 10:37:01;;;;;;;;;15.00;12.75;;;;;;;;5076217;28;46510;-71
2022/03/29 10:39:45;;;;;;;;;20.75;16.50;;;;;;;;5077521;28;45266;-71
2022/03/29 10:42:29;;;;;;;;;13.75;11.50;;;;;;;;5077497;28;45552;-72
2022/03/29 10:45:03;;;;;;;;;18.75;17.50;;;;;;;;5077572;28;45328;-71
2022/03/29 10:47:29;;;;;;;;;18.50;17.00;;;;;;;;5077257;27;46245;-71
2022/03/29 10:49:55;;;;;;;;;17.50;14.75;;;;;;;;5077311;28;46052;-71
2022/03/29 10:52:20;;;;;;;;;19.00;17.50;;;;;;;;5077628;28;45310;-71
2022/03/29 10:54:46;;;;;;;;;17.25;15.25;;;;;;;;5076291;28;45259;-71
2022/03/29 10:57:24;;;;;;;;;17.50;17.25;;;;;;;;5077225;28;46224;-71
2022/03/29 10:59:58;;;;;;;;;18.50;17.25;;;;;;;;5077603;27;45246;-71
2022/03/29 11:02:24;;;;;;;;;14.50;13.25;;;;;;;;5077340;28;45431;-72
2022/03/29 11:05:05;;;;;;;;;18.25;17.25;;;;;;;;5078154;27;45349;-72
2022/03/29 11:07:35;;;;;;;;;11.00;11.00;;;;;;;;5076301;28;46292;-71
2022/03/29 11:10:12;;;;;;;;;16.33;14.33;;;;;;;;5077168;28;45401;-72
2022/03/29 11:12:38;;;;;;;;;18.25;18.25;;;;;;;;5076816;28;45248;-71
2022/03/29 11:15:22;;;;;;;;;19.50;18.75;;;;;;;;5077338;28;45218;-71
2022/03/29 11:17:48;;;;;;;;;18.50;17.75;;;;;;;;5076788;28;45479;-71
2022/03/29 11:20:46;;;;;;;;;19.75;16.00;;;;;;;;5076997;28;45361;-71
2022/03/29 11:23:11;;;;;;;;;20.25;17.50;;;;;;;;5064596;27;45538;-71
2022/03/29 11:25:45;;;;;;;;;13.00;10.75;;;;;;;;5075598;28;45532;-71
2022/03/29 11:28:14;;;;;;;;;16.67;13.67;;;;;;;;5075817;28;45995;-72
2022/03/29 11:30:40;;;;;;;;;17.67;15.67;;;;;;;;5076822;28;45547;-71
2022/03/29 11:33:07;;;;;;;;;17.00;16.25;;;;;;;;5076898;28;45330;-71
2022/03/29 11:35:33;;;;;;;;;17.50;13.00;;;;;;;;5077257;28;45515;-71
2022/03/29 11:38:09;;;;;;;;;17.75;17.50;;;;;;;;5076557;28;45573;-71
2022/03/29 11:40:36;;;;;;;;;21.00;18.50;;;;;;;;5076715;28;45282;-71
2022/03/29 11:43:05;;;;;;;;;19.25;19.00;;;;;;;;5075377;28;46003;-72
2022/03/29 11:45:35;;;;;;;;;20.25;19.00;;;;;;;;5075440;28;45321;-71
2022/03/29 11:48:07;;;;;;;;;21.00;18.00;;;;;;;;5076444;28;46169;-72
2022/03/29 11:50:45;;;;;;;;;19.00;18.25;;;;;;;;5076602;28;45316;-71
2022/03/29 11:53:25;;;;;;;;;19.67;18.33;;;;;;;;5076672;28;45252;-71
2022/03/29 11:55:58;;;;;;;;;21.00;16.00;;;;;;;;5075519;28;45706;-72
2022/03/29 11:58:37;;;;;;;;;20.25;18.00;;;;;;;;5076635;28;46191;-71
2022/03/29 12:01:03;;;;;;;;;21.67;18.00;;;;;;;;5076436;28;45261;-72
2022/03/29 12:03:29;;;;;;;;;17.75;16.50;;;;;;;;5076632;28;45456;-72
2022/03/29 12:06:01;;;;;;;;;17.00;16.00;;;;;;;;5075773;28;45515;-71
2022/03/29 12:08:41;;;;;;;;;15.33;14.67;;;;;;;;5075066;28;46232;-71
2022/03/29 12:11:09;;;;;;;;;17.67;16.67;;;;;;;;5076286;28;45265;-71
2022/03/29 12:13:34;;;;;;;;;18.25;15.75;;;;;;;;5076312;28;45629;-72
2022/03/29 12:16:13;;;;;;;;;17.67;16.33;;;;;;;;5075335;28;45579;-72
2022/03/29 12:18:41;;;;;;;;;21.00;18.25;;;;;;;;5076677;27;46550;-71
2022/03/29 12:21:11;;;;;;;;;17.75;15.75;;;;;;;;5079663;28;45492;-71
2022/03/29 12:23:36;;;;;;;;;14.67;13.33;;;;;;;;5078405;28;45402;-71
2022/03/29 12:26:02;;;;;;;;;19.33;16.67;;;;;;;;5079799;28;45398;-71
2022/03/29 12:28:27;;;;;;;;;16.33;16.00;;;;;;;;5078297;27;46985;-71
2022/03/29 12:30:54;;;;;;;;;17.33;15.33;;;;;;;;5079497;28;45487;-70
2022/03/29 12:33:20;;;;;;;;;20.50;16.50;;;;;;;;5079850;28;45478;-70
2022/03/29 12:35:48;;;;;;;;;19.50;16.50;;;;;;;;5079712;28;45239;-70
2022/03/29 12:38:14;;;;;;;;;17.33;15.00;;;;;;;;5077922;28;47194;-70
2022/03/29 12:40:52;;;;;;;;;17.00;16.25;;;;;;;;5079386;28;45295;-70
2022/03/29 12:43:24;;;;;;;;;16.67;15.67;;;;;;;;5079367;27;45306;-70
2022/03/29 12:45:50;;;;;;;;;18.00;16.00;;;;;;;;5079492;27;45272;-71
2022/03/29 12:48:15;;;;;;;;;23.00;20.50;;;;;;;;5078132;28;45480;-70
2022/03/29 12:50:40;;;;;;;;;18.50;17.50;;;;;;;;5078113;28;45374;-70
2022/03/29 12:53:10;;;;;;;;;20.33;17.67;;;;;;;;5079540;28;45405;-70
2022/03/29 12:55:38;;;;;;;;;22.25;20.50;;;;;;;;5079626;27;45492;-70
2022/03/29 12:58:04;;;;;;;;;24.00;19.67;;;;;;;;5079194;28;46130;-71
2022/03/29 13:00:41;;;;;;;;;24.00;22.50;;;;;;;;5079170;27;45235;-70
2022/03/29 13:03:10;;;;;;;;;20.00;18.75;;;;;;;;5079251;27;45559;-70
2022/03/29 13:05:36;;;;;;;;;22.00;20.50;;;;;;;;5078022;27;45413;-70
2022/03/29 13:08:02;;;;;;;;;21.75;20.00;;;;;;;;5078811;28;45472;-70
2022/03/29 13:10:40;;;;;;;;;22.67;20.67;;;;;;;;5079262;28;45267;-70
2022/03/29 13:13:05;;;;;;;;;25.00;22.50;;;;;;;;5077887;28;45644;-71
2022/03/29 13:15:38;;;;;;;;;22.75;20.50;;;;;;;;5078075;28;45567;-71
2022/03/29 13:18:17;;;;;;;;;23.25;23.25;;;;;;;;5078497;28;46289;-71
2022/03/29 13:20:43;;;;;;;;;25.75;20.75;;;;;;;;5078577;28;45397;-71
2022/03/29 13:23:08;;;;;;;;;23.75;23.25;;;;;;;;5078794;28;45327;-70
2022/03/29 13:25:35;;;;;;;;;24.50;21.50;;;;;;;;5078999;28;45498;-71
2022/03/29 13:28:00;;;;;;;;;22.00;20.50;;;;;;;;5078853;27;46226;-70
2022/03/29 13:30:26;;;;;;;;;30.00;25.25;;;;;;;;5077704;28;45386;-70
2022/03/29 13:32:52;;;;;;;;;28.25;26.75;;;;;;;;5078750;28;45469;-71
2022/03/29 13:35:18;;;;;;;;;50.25;42.25;;;;;;;;5077643;28;45426;-71
2022/03/29 13:37:43;;;;;;;;;26.00;26.00;;;;;;;;5076992;28;46241;-70
2022/03/29 13:40:10;;;;;;;;;29.25;25.75;;;;;;;;5078655;28;45398;-70
2022/03/29 13:42:36;;;;;;;;;25.50;20.75;;;;;;;;5077099;28;45559;-70
2022/03/29 13:45:01;;;;;;;;;31.50;29.50;;;;;;;;5077418;28;45503;-70
2022/03/29 13:47:27;;;;;;;;;30.25;26.75;;;;;;;;5077077;28;46724;-70
2022/03/29 13:49:52;;;;;;;;;29.50;28.00;;;;;;;;5077064;28;45393;-70
2022/03/29 13:52:17;;;;;;;;;26.75;21.25;;;;;;;;5078578;28;45351;-70
2022/03/29 13:54:43;;;;;;;;;26.75;23.25;;;;;;;;5077324;28;45512;-70
2022/03/29 13:57:08;;;;;;;;;28.00;26.50;;;;;;;;5078110;28;45523;-70
2022/03/29 13:59:34;;;;;;;;;23.25;23.00;;;;;;;;5078649;28;45475;-70
2022/03/29 14:01:59;;;;;;;;;23.00;21.00;;;;;;;;5078600;28;45911;-69
2022/03/29 14:04:25;;;;;;;;;27.50;24.50;;;;;;;;5078411;27;45487;-70
2022/03/29 14:06:50;;;;;;;;;26.75;23.75;;;;;;;;5078237;28;45355;-70
2022/03/29 14:09:16;;;;;;;;;27.00;23.25;;;;;;;;5076687;27;45312;-70
2022/03/29 14:11:41;;;;;;;;;21.50;18.00;;;;;;;;5078201;28;45805;-71
2022/03/29 14:14:06;;;;;;;;;22.50;21.00;;;;;;;;5078299;28;45566;-71
2022/03/29 14:16:32;;;;;;;;;25.25;24.50;;;;;;;;5078244;28;45367;-70
2022/03/29 14:18:57;;;;;;;;;21.75;21.25;;;;;;;;5077970;28;45330;-70
2022/03/29 14:21:23;;;;;;;;;24.25;22.75;;;;;;;;5076673;28;45341;-70
2022/03/29 14:23:49;;;;;;;;;21.75;20.75;;;;;;;;5076591;28;45460;-70